Gravel Beach, Indiana
Current Conditions -  °F | °C
As of 4:35 AM on Friday 31 Oct 2014 (Local Time) from KANQ Reporting Station
Overcast Overcast  
Wind Chill: 43°   Ceiling: 3700
Heat Index: 43°   Visibility: 10mi
Dew Point: 37°   Wind: 3mph
Humidity: 81%   Direction: 230°SW
Pressure: 29.95"   Gusts: NA
Location:  41.5628°N, 85.1391°W
Report Text: KANQ 310835Z AUTO 23003KT 10SM OVC037 06/03 A2995 RMK
Loading
Personal Weather Stations






























Interactive Weather Map
Tropical Storm Tracking
New forecast layout! Learn more

10-Day Weather Forecast

Advertisements
Track Severe Weather on mobile